Time;durP1;ratioP1;P1;durP2;ratioP2;P2;SDS_P1;SDS_P2;PMS_P1;PMS_P2;Temp;Humidity;BMP_temperature;BMP_pressure;BME280_temperature;BME280_humidity;BME280_pressure;Samples;Min_cycle;Max_cycle;Signal;HPM_P1;HPM_P2
2021/09/23 00:01:02;;;;;;;12.02;6.22;;;;;;;;;;5011979;28;20033;-76
2021/09/23 00:05:54;;;;;;;9.73;6.03;;;;;;;;;;5013438;28;20505;-76
2021/09/23 00:08:20;;;;;;;12.93;6.22;;;;;;;;;;5013023;28;20022;-76
2021/09/23 00:10:46;;;;;;;9.25;5.60;;;;;;;;;;5012270;28;20029;-76
2021/09/23 00:13:12;;;;;;;10.00;5.47;;;;;;;;;;5012594;28;20034;-76
2021/09/23 00:15:38;;;;;;;7.68;5.68;;;;;;;;;;5029231;28;20030;-76
2021/09/23 00:18:07;;;;;;;9.95;5.85;;;;;;;;;;5032545;28;20029;-76
2021/09/23 00:20:34;;;;;;;7.47;5.85;;;;;;;;;;5016799;28;20510;-76
2021/09/23 00:23:00;;;;;;;9.27;5.93;;;;;;;;;;5012782;28;20085;-76
2021/09/23 00:25:27;;;;;;;8.43;5.60;;;;;;;;;;4995158;28;20026;-76
2021/09/23 00:27:53;;;;;;;6.63;5.20;;;;;;;;;;5012592;28;20021;-76
2021/09/23 00:30:19;;;;;;;7.93;5.05;;;;;;;;;;5011868;28;20026;-76
2021/09/23 00:32:45;;;;;;;7.95;5.20;;;;;;;;;;4994077;28;20084;-76
2021/09/23 00:35:11;;;;;;;10.05;5.72;;;;;;;;;;4995083;28;20038;-76
2021/09/23 00:37:37;;;;;;;8.60;5.65;;;;;;;;;;5012521;28;20099;-76
2021/09/23 00:40:08;;;;;;;8.45;5.57;;;;;;;;;;5011672;28;20029;-76
2021/09/23 00:42:34;;;;;;;9.73;6.00;;;;;;;;;;5012801;28;20045;-76
2021/09/23 00:45:01;;;;;;;10.77;5.68;;;;;;;;;;5012553;28;20054;-76
2021/09/23 00:47:28;;;;;;;8.63;5.97;;;;;;;;;;5012515;28;20036;-76
2021/09/23 00:49:54;;;;;;;7.75;5.82;;;;;;;;;;5022069;28;20033;-76
2021/09/23 00:52:20;;;;;;;10.27;7.03;;;;;;;;;;5031363;28;20217;-76
2021/09/23 00:54:50;;;;;;;11.18;6.72;;;;;;;;;;5030163;28;20029;-76
2021/09/23 00:57:17;;;;;;;8.82;6.18;;;;;;;;;;5031840;28;20037;-76
2021/09/23 00:59:44;;;;;;;9.75;6.85;;;;;;;;;;5030895;28;20513;-76
2021/09/23 01:02:10;;;;;;;13.10;7.15;;;;;;;;;;5031912;28;20040;-76
2021/09/23 01:04:42;;;;;;;7.85;6.13;;;;;;;;;;5021989;28;20030;-76
2021/09/23 01:07:08;;;;;;;10.97;6.83;;;;;;;;;;5012153;28;20018;-76
2021/09/23 01:09:38;;;;;;;14.90;6.82;;;;;;;;;;5011399;28;20276;-77
2021/09/23 01:12:05;;;;;;;10.82;6.82;;;;;;;;;;5011983;28;20094;-76
2021/09/23 01:14:30;;;;;;;10.38;7.63;;;18.70;86.00;;;;;;5011932;28;20044;-76
2021/09/23 01:16:56;;;;;;;15.85;8.00;;;8.90;99.90;;;;;;5012861;28;20481;-76
2021/09/23 01:19:22;;;;;;;14.98;8.70;;;9.70;99.90;;;;;;5006932;28;20038;-76
2021/09/23 01:21:47;;;;;;;11.20;7.50;;;8.50;99.90;;;;;;5011912;28;20034;-76
2021/09/23 01:24:13;;;;;;;12.93;8.25;;;8.60;99.90;;;;;;5019085;28;20056;-76
2021/09/23 01:26:38;;;;;;;15.10;9.32;;;8.40;99.90;;;;;;5013658;28;20034;-76
2021/09/23 01:29:04;;;;;;;19.15;9.93;;;8.60;99.90;;;;;;5030567;28;20164;-76
2021/09/23 01:31:29;;;;;;;16.85;10.48;;;9.80;99.90;;;;;;5031527;28;20453;-76
2021/09/23 01:33:55;;;;;;;16.55;10.77;;;8.90;99.90;;;;;;5028224;28;20034;-76
2021/09/23 01:36:21;;;;;;;15.65;9.98;;;8.70;99.90;;;;;;4994545;28;20079;-76
2021/09/23 01:38:50;;;;;;;14.13;9.55;;;8.90;99.90;;;;;;5026775;28;20053;-76
2021/09/23 01:41:16;;;;;;;15.85;10.98;;;9.30;99.90;;;;;;5031633;28;20025;-76
2021/09/23 01:43:42;;;;;;;18.77;11.65;;;8.80;99.90;;;;;;5030236;28;20022;-76
2021/09/23 01:46:07;;;;;;;18.52;12.60;;;8.90;99.90;;;;;;5023676;28;20481;-76
2021/09/23 01:48:33;;;;;;;18.35;11.77;;;9.20;99.90;;;;;;5035199;28;20022;-76
2021/09/23 01:50:58;;;;;;;17.73;11.32;;;9.30;99.90;;;;;;5027935;28;20104;-76
2021/09/23 01:53:24;;;;;;;20.17;11.70;;;10.50;99.90;;;;;;5015389;28;20379;-77
2021/09/23 01:55:50;;;;;;;15.80;10.32;;;9.30;99.90;;;;;;5015430;28;20099;-77
2021/09/23 01:58:15;;;;;;;13.32;9.65;;;9.20;99.90;;;;;;5015443;28;20038;-77
2021/09/23 02:00:41;;;;;;;13.95;9.75;;;10.20;99.90;;;;;;4996919;28;20085;-77
2021/09/23 02:03:06;;;;;;;13.35;9.18;;;9.20;99.90;;;;;;5015205;28;20041;-77
2021/09/23 02:05:32;;;;;;;14.55;11.13;;;10.00;99.90;;;;;;4997688;28;20034;-77
2021/09/23 02:07:58;;;;;;;19.77;11.05;;;9.20;99.90;;;;;;4997787;28;20030;-77
2021/09/23 02:10:23;;;;;;;13.57;10.50;;;11.00;99.90;;;;;;5014600;28;20403;-77
2021/09/23 02:12:49;;;;;;;18.20;11.00;;;9.20;99.90;;;;;;5014987;28;20506;-77
2021/09/23 02:15:15;;;;;;;15.63;9.98;;;10.30;99.90;;;;;;4998454;28;20034;-77
2021/09/23 02:17:41;;;;;;;13.77;9.80;;;9.40;99.90;;;;;;5015170;28;20117;-77
2021/09/23 02:20:07;;;;;;;18.23;10.07;;;9.50;99.90;;;;;;5026225;28;20433;-76
2021/09/23 02:22:33;;;;;;;14.98;9.02;;;9.50;99.90;;;;;;5016953;28;20076;-76
2021/09/23 02:24:58;;;;;;;13.18;9.18;;;10.90;99.90;;;;;;5034407;28;20053;-76
2021/09/23 02:27:24;;;;;;;11.73;8.38;;;10.90;99.90;;;;;;5016785;28;20034;-77
2021/09/23 02:29:50;;;;;;;13.15;9.13;;;9.90;99.90;;;;;;5033807;28;20061;-76
2021/09/23 02:32:15;;;;;;;13.43;8.50;;;9.70;99.90;;;;;;5034509;28;20037;-76
2021/09/23 02:34:41;;;;;;;14.38;8.25;;;9.70;99.90;;;;;;5033432;28;20026;-76
2021/09/23 02:37:07;;;;;;;11.80;7.40;;;10.70;99.90;;;;;;5016735;28;20034;-77
2021/09/23 02:39:36;;;;;;;13.05;7.97;;;10.20;99.90;;;;;;5025788;28;20034;-77
2021/09/23 02:42:02;;;;;;;9.38;7.15;;;9.80;99.90;;;;;;5014490;28;20037;-76
2021/09/23 02:44:27;;;;;;;10.63;7.40;;;9.60;99.90;;;;;;5014766;28;20391;-76
2021/09/23 02:46:53;;;;;;;12.95;7.25;;;10.20;99.90;;;;;;5018415;28;20509;-77
2021/09/23 02:49:18;;;;;;;13.65;7.22;;;10.20;99.90;;;;;;5015732;28;20061;-77
2021/09/23 02:51:44;;;;;;;10.63;7.45;;;9.40;99.90;;;;;;5014493;28;20442;-77
2021/09/23 02:54:10;;;;;;;12.48;8.23;;;9.30;99.90;;;;;;5013423;28;20120;-77
2021/09/23 02:56:36;;;;;;;11.15;8.43;;;10.50;99.90;;;;;;5013340;28;20101;-77
2021/09/23 02:59:02;;;;;;;16.55;9.52;;;9.20;99.90;;;;;;5008522;28;20124;-77
2021/09/23 03:01:27;;;;;;;14.05;10.48;;;10.10;99.90;;;;;;5034060;28;20483;-77
2021/09/23 03:03:53;;;;;;;14.70;10.38;;;10.00;99.90;;;;;;5019405;28;20398;-77
2021/09/23 03:06:19;;;;;;;12.55;9.13;;;10.70;99.90;;;;;;5033613;28;20041;-77
2021/09/23 03:08:44;;;;;;;14.13;9.27;;;10.80;99.90;;;;;;5033437;28;20390;-77
2021/09/23 03:11:10;;;;;;;13.40;9.70;;;9.60;99.90;;;;;;5015801;28;20498;-77
2021/09/23 03:13:35;;;;;;;13.88;9.50;;;9.60;99.90;;;;;;5033666;28;20029;-77
2021/09/23 03:16:01;;;;;;;16.30;10.15;;;9.60;99.90;;;;;;5033471;28;20076;-77
2021/09/23 03:18:27;;;;;;;17.27;10.20;;;9.60;99.90;;;;;;5016004;28;20468;-77
2021/09/23 03:20:53;;;;;;;14.73;10.10;;;11.00;99.90;;;;;;4996003;28;20057;-77
2021/09/23 03:23:19;;;;;;;14.32;9.77;;;9.60;99.90;;;;;;5013835;28;20030;-77
2021/09/23 03:25:45;;;;;;;20.23;10.05;;;9.50;99.90;;;;;;5014847;28;20100;-76
2021/09/23 03:28:11;;;;;;;14.07;9.45;;;10.10;99.90;;;;;;5016090;28;20562;-75
2021/09/23 03:30:37;;;;;;;16.90;9.55;;;10.70;99.90;;;;;;4999179;28;20092;-75
2021/09/23 03:33:05;;;;;;;16.80;9.50;;;11.20;99.90;;;;;;5015143;28;20033;-76
2021/09/23 03:35:31;;;;;;;18.27;10.50;;;9.50;99.90;;;;;;5011417;28;20072;-76
2021/09/23 03:37:58;;;;;;;15.43;10.07;;;9.50;99.90;;;;;;5016108;28;20386;-76
2021/09/23 03:40:25;;;;;;;13.77;9.75;;;9.60;99.90;;;;;;5015178;28;20036;-76
2021/09/23 03:42:50;;;;;;;18.10;10.45;;;9.50;99.90;;;;;;5029699;28;20025;-76
2021/09/23 03:45:17;;;;;;;18.45;10.23;;;9.40;99.90;;;;;;5032878;28;20068;-76
2021/09/23 03:47:42;;;;;;;17.73;10.30;;;9.30;99.90;;;;;;5000333;28;20026;-76
2021/09/23 03:50:09;;;;;;;13.82;9.48;;;9.90;99.90;;;;;;5025137;28;20104;-76
2021/09/23 03:52:34;;;;;;;16.30;10.10;;;9.50;99.90;;;;;;5018249;28;20119;-76
2021/09/23 03:55:00;;;;;;;16.80;10.73;;;9.60;99.90;;;;;;5012217;28;20042;-75
2021/09/23 03:57:27;;;;;;;18.13;10.40;;;10.30;99.90;;;;;;5025995;28;20029;-76
2021/09/23 03:59:52;;;;;;;15.90;9.52;;;9.70;99.90;;;;;;5031528;28;20087;-76
2021/09/23 04:02:19;;;;;;;16.13;10.18;;;9.70;99.90;;;;;;5003513;28;20026;-76
2021/09/23 04:04:45;;;;;;;15.63;9.48;;;11.00;99.90;;;;;;5013038;28;20034;-76
2021/09/23 04:07:10;;;;;;;18.42;10.40;;;9.80;99.90;;;;;;5005823;28;20030;-76
2021/09/23 04:09:36;;;;;;;15.50;9.48;;;9.80;99.90;;;;;;5031887;28;20106;-76
2021/09/23 04:14:33;;;;;;;15.93;8.52;;;9.70;99.90;;;;;;4992549;28;20050;-76
2021/09/23 04:16:59;;;;;;;13.43;9.10;;;10.20;99.90;;;;;;4993332;28;20022;-76
2021/09/23 04:19:25;;;;;;;17.05;9.70;;;9.60;99.90;;;;;;4992799;28;20682;-77
2021/09/23 04:21:51;;;;;;;13.75;8.95;;;9.50;99.90;;;;;;4993302;28;20038;-76
2021/09/23 04:24:17;;;;;;;14.05;9.15;;;9.90;99.90;;;;;;4993006;28;20027;-76
2021/09/23 04:26:43;;;;;;;13.57;9.43;;;9.60;99.90;;;;;;4992919;28;20026;-76
2021/09/23 04:29:09;;;;;;;12.45;9.55;;;9.80;99.90;;;;;;4992321;28;20049;-77
2021/09/23 04:31:34;;;;;;;12.70;7.70;;;9.80;99.90;;;;;;4986667;28;20058;-77
2021/09/23 04:34:00;;;;;;;10.57;7.78;;;9.60;99.90;;;;;;4977303;28;20034;-75
2021/09/23 04:36:26;;;;;;;12.90;8.57;;;10.50;99.90;;;;;;4993019;28;20026;-75
2021/09/23 04:38:52;;;;;;;16.67;9.95;;;9.20;99.90;;;;;;4975469;28;20034;-76
2021/09/23 04:41:17;;;;;;;19.58;12.52;;;9.50;99.90;;;;;;4993056;28;20057;-75
2021/09/23 04:43:46;;;;;;;19.40;11.85;;;8.80;99.90;;;;;;4976133;28;20053;-76
2021/09/23 04:46:12;;;;;;;20.45;14.38;;;8.80;99.90;;;;;;4974439;28;20023;-76
2021/09/23 04:48:37;;;;;;;20.70;12.32;;;8.60;99.90;;;;;;4973252;28;20114;-76
2021/09/23 04:51:03;;;;;;;18.30;11.60;;;8.60;99.90;;;;;;4979919;28;20089;-78
2021/09/23 04:53:29;;;;;;;18.88;12.23;;;9.00;99.90;;;;;;4971951;28;20041;-76
2021/09/23 04:55:54;;;;;;;15.45;11.18;;;8.40;99.90;;;;;;4974065;28;20093;-76
2021/09/23 04:58:20;;;;;;;18.70;11.82;;;8.50;99.90;;;;;;4993035;28;20027;-76
2021/09/23 05:00:46;;;;;;;17.90;10.93;;;8.90;99.90;;;;;;4984191;28;20023;-76
2021/09/23 05:03:13;;;;;;;20.58;12.55;;;9.40;99.90;;;;;;4974908;28;20472;-78
2021/09/23 05:05:40;;;;;;;24.67;16.48;;;8.60;99.90;;;;;;4992594;28;20113;-76
2021/09/23 05:08:06;;;;;;;31.08;18.65;;;8.10;99.90;;;;;;4992454;28;20031;-78
2021/09/23 05:10:35;;;;;;;19.75;13.10;;;7.90;99.90;;;;;;4974510;28;20026;-77
2021/09/23 05:13:01;;;;;;;23.58;13.60;;;8.00;99.90;;;;;;4974329;28;20066;-76
2021/09/23 05:15:26;;;;;;;16.60;11.40;;;7.90;99.90;;;;;;4972694;28;20066;-76
2021/09/23 05:17:52;;;;;;;17.08;10.95;;;7.80;99.90;;;;;;4955836;28;20114;-77
2021/09/23 05:20:18;;;;;;;15.90;11.15;;;7.60;99.90;;;;;;4975632;28;20027;-76
2021/09/23 05:22:44;;;;;;;15.07;10.80;;;7.60;99.90;;;;;;4977059;28;20027;-78
2021/09/23 05:25:10;;;;;;;16.13;12.20;;;7.60;99.90;;;;;;4977095;28;20050;-78
2021/09/23 05:27:40;;;;;;;16.80;11.57;;;7.40;99.90;;;;;;4991173;28;20427;-78
2021/09/23 05:30:08;;;;;;;17.30;10.77;;;7.60;99.90;;;;;;4978171;28;20039;-76
2021/09/23 05:32:35;;;;;;;17.73;11.23;;;7.50;99.90;;;;;;4996130;28;20069;-76
2021/09/23 05:35:01;;;;;;;19.15;11.02;;;8.10;99.90;;;;;;4996410;28;20030;-77
2021/09/23 05:37:26;;;;;;;17.10;11.70;;;8.50;99.90;;;;;;4996213;28;20344;-77
2021/09/23 05:39:52;;;;;;;22.50;12.77;;;7.50;99.90;;;;;;4995461;28;20447;-76
2021/09/23 05:42:18;;;;;;;20.83;11.93;;;7.60;99.90;;;;;;4995719;28;20037;-76
2021/09/23 05:44:43;;;;;;;19.33;11.77;;;8.50;99.90;;;;;;4995654;28;20058;-76
2021/09/23 05:47:09;;;;;;;22.10;12.68;;;8.40;99.90;;;;;;4995746;28;20447;-76
2021/09/23 05:49:35;;;;;;;19.08;12.55;;;7.70;99.90;;;;;;4995255;28;20041;-77
2021/09/23 05:52:00;;;;;;;17.98;12.55;;;7.70;99.90;;;;;;4969627;28;20096;-75
2021/09/23 05:54:27;;;;;;;17.77;12.65;;;7.90;99.90;;;;;;4994783;28;20045;-77
2021/09/23 05:56:52;;;;;;;16.75;12.52;;;9.00;99.90;;;;;;4995801;28;20550;-75
2021/09/23 05:59:18;;;;;;;19.10;12.65;;;8.60;99.90;;;;;;4994939;28;20042;-76
2021/09/23 06:01:44;;;;;;;20.80;13.38;;;8.10;99.90;;;;;;4995547;28;20109;-75
2021/09/23 06:04:10;;;;;;;17.88;11.90;;;8.20;99.90;;;;;;4995614;28;20032;-77
2021/09/23 06:06:36;;;;;;;13.63;9.35;;;8.30;99.90;;;;;;4995809;28;20035;-76
2021/09/23 06:09:03;;;;;;;14.23;9.50;;;8.40;99.90;;;;;;4995306;28;20033;-76
2021/09/23 06:11:29;;;;;;;14.07;9.65;;;8.60;99.90;;;;;;4990348;28;20360;-76
2021/09/23 06:13:55;;;;;;;10.80;8.63;;;8.50;99.90;;;;;;4976466;28;20038;-76
2021/09/23 06:16:20;;;;;;;14.70;9.13;;;8.90;99.90;;;;;;4995166;28;20034;-76
2021/09/23 06:18:46;;;;;;;12.00;8.27;;;8.40;99.90;;;;;;4995368;28;20031;-76
2021/09/23 06:21:12;;;;;;;19.52;9.52;;;10.20;99.90;;;;;;4995174;28;20042;-77
2021/09/23 06:23:38;;;;;;;12.30;9.30;;;9.10;99.90;;;;;;4977893;28;20034;-77
2021/09/23 06:26:04;;;;;;;12.00;8.52;;;8.90;99.90;;;;;;4995400;28;20037;-79
2021/09/23 06:28:31;;;;;;;11.60;8.07;;;8.80;99.90;;;;;;4995212;28;20077;-77
2021/09/23 06:30:58;;;;;;;11.45;8.23;;;8.70;99.90;;;;;;4994494;28;20031;-76
2021/09/23 06:33:24;;;;;;;10.13;8.20;;;8.80;99.90;;;;;;4994962;28;20038;-76
2021/09/23 06:35:50;;;;;;;9.73;6.85;;;9.20;99.90;;;;;;4995293;28;20088;-75
2021/09/23 06:38:15;;;;;;;8.68;6.07;;;9.20;99.90;;;;;;4995290;28;20161;-75
2021/09/23 06:40:41;;;;;;;10.90;5.53;;;10.80;99.90;;;;;;4994651;28;20073;-75
2021/09/23 06:43:07;;;;;;;7.40;5.50;;;9.50;99.90;;;;;;4995055;28;20027;-74
2021/09/23 06:45:32;;;;;;;8.68;5.68;;;9.70;99.90;;;;;;5009499;28;20402;-76
2021/09/23 06:47:59;;;;;;;7.15;5.40;;;9.60;99.90;;;;;;4995060;28;20031;-75
2021/09/23 06:50:25;;;;;;;7.72;5.35;;;9.80;99.90;;;;;;4994039;28;20126;-75
2021/09/23 06:52:50;;;;;;;8.40;5.80;;;9.90;99.90;;;;;;4994932;28;20685;-76
2021/09/23 06:55:16;;;;;;;10.35;5.63;;;10.40;99.90;;;;;;4980245;28;20138;-74
2021/09/23 06:57:42;;;;;;;9.23;5.95;;;11.60;99.90;;;;;;4986490;28;20044;-78
2021/09/23 07:00:08;;;;;;;7.60;5.60;;;10.40;99.90;;;;;;4990480;28;20122;-74
2021/09/23 07:02:34;;;;;;;11.55;5.60;;;10.40;99.90;;;;;;4990604;28;20141;-75
2021/09/23 07:04:59;;;;;;;10.48;7.10;;;10.70;99.90;;;;;;4991363;28;20030;-80
2021/09/23 07:07:25;;;;;;;8.15;5.28;;;11.30;99.90;;;;;;4990866;28;20030;-76
2021/09/23 07:09:51;;;;;;;9.95;5.15;;;11.00;99.90;;;;;;4981209;28;20034;-76
2021/09/23 07:12:16;;;;;;;7.72;5.45;;;11.60;99.90;;;;;;4991357;28;20077;-76
2021/09/23 07:14:42;;;;;;;8.65;5.97;;;11.00;99.90;;;;;;4973297;28;20034;-75
2021/09/23 07:17:08;;;;;;;10.45;5.30;;;11.00;99.90;;;;;;4972746;28;20038;-75
2021/09/23 07:19:33;;;;;;;9.75;6.78;;;11.90;99.90;;;;;;4991302;28;20126;-77
2021/09/23 07:21:59;;;;;;;8.52;6.10;;;11.30;99.90;;;;;;4983207;28;20030;-75
2021/09/23 07:24:25;;;;;;;9.15;6.38;;;11.30;99.90;;;;;;4980686;28;20117;-77
2021/09/23 07:26:51;;;;;;;11.73;6.15;;;11.60;99.90;;;;;;4990165;28;20065;-76
2021/09/23 07:29:17;;;;;;;8.90;5.72;;;12.20;99.90;;;;;;4989872;28;20018;-76
2021/09/23 07:31:44;;;;;;;10.32;6.35;;;11.70;99.90;;;;;;4990716;28;20037;-76
2021/09/23 07:34:10;;;;;;;10.43;5.85;;;11.90;99.90;;;;;;4995851;28;20129;-76
2021/09/23 07:36:36;;;;;;;8.85;5.45;;;12.90;99.90;;;;;;4972506;28;20026;-81
2021/09/23 07:39:06;;;;;;;8.80;5.32;;;11.90;99.90;;;;;;4990231;28;20117;-77
2021/09/23 07:41:39;;;;;;;10.55;5.55;;;11.90;99.90;;;;;;4989761;28;20149;-76
2021/09/23 07:44:06;;;;;;;12.77;6.65;;;12.10;99.90;;;;;;4989767;28;20535;-77
2021/09/23 07:46:32;;;;;;;8.23;6.13;;;12.20;99.90;;;;;;4990134;28;20027;-79
2021/09/23 07:48:58;;;;;;;9.30;5.97;;;12.30;99.90;;;;;;4989892;28;20306;-76
2021/09/23 07:51:23;;;;;;;9.60;6.25;;;12.80;99.90;;;;;;4989369;28;20480;-78
2021/09/23 07:53:49;;;;;;;8.60;6.07;;;13.30;99.90;;;;;;4990315;28;20069;-78
2021/09/23 07:56:15;;;;;;;9.70;5.68;;;14.40;99.90;;;;;;4977662;28;20063;-79
2021/09/23 07:58:41;;;;;;;9.60;6.32;;;12.80;99.90;;;;;;4988947;28;20557;-81
2021/09/23 08:01:08;;;;;;;7.03;5.55;;;13.00;99.90;;;;;;4986801;28;20030;-79
2021/09/23 08:03:33;;;;;;;11.95;5.93;;;13.00;99.90;;;;;;4985286;28;20025;-77
2021/09/23 08:05:59;;;;;;;12.20;5.82;;;13.10;99.90;;;;;;4975913;28;20039;-78
2021/09/23 08:08:24;;;;;;;9.23;5.57;;;13.40;99.90;;;;;;4991356;28;20668;-76
2021/09/23 08:10:50;;;;;;;8.27;5.22;;;13.40;99.90;;;;;;4990860;28;20026;-81
2021/09/23 08:13:16;;;;;;;8.02;6.00;;;13.40;99.90;;;;;;4989401;28;20074;-76
2021/09/23 08:15:42;;;;;;;8.38;5.38;;;13.50;99.90;;;;;;4973360;28;20113;-77
2021/09/23 08:18:08;;;;;;;9.13;5.20;;;14.60;99.90;;;;;;4991320;28;20491;-76
2021/09/23 08:20:34;;;;;;;9.27;6.07;;;14.50;99.90;;;;;;4971096;28;20610;-76
2021/09/23 08:23:00;;;;;;;6.93;5.00;;;13.80;99.90;;;;;;4988155;28;20110;-77
2021/09/23 08:25:26;;;;;;;9.30;5.68;;;15.00;99.90;;;;;;4989421;28;20038;-76
2021/09/23 08:27:51;;;;;;;7.47;5.35;;;14.90;99.90;;;;;;4971972;28;20034;-77
2021/09/23 08:30:17;;;;;;;7.22;5.35;;;14.30;99.90;;;;;;4969293;28;20070;-81
2021/09/23 08:32:43;;;;;;;8.10;5.30;;;14.40;99.90;;;;;;4969800;28;20041;-75
2021/09/23 08:35:09;;;;;;;12.23;5.70;;;;;;;;;;4969214;28;20403;-76
2021/09/23 08:37:36;;;;;;;7.57;5.13;;;;;;;;;;4970820;28;20038;-76
2021/09/23 08:40:05;;;;;;;8.35;5.55;;;;;;;;;;4987831;28;20115;-75
2021/09/23 08:42:31;;;;;;;6.90;5.32;;;;;;;;;;4988079;28;20459;-76
2021/09/23 08:44:57;;;;;;;10.15;5.47;;;;;;;;;;4989226;28;20027;-76
2021/09/23 08:47:23;;;;;;;6.45;5.07;;;;;;;;;;4988315;28;20061;-76
2021/09/23 08:49:49;;;;;;;7.50;5.22;;;;;;;;;;4978293;28;20117;-78
2021/09/23 08:52:16;;;;;;;9.85;5.30;;;;;;;;;;4976038;28;20015;-76
2021/09/23 08:54:42;;;;;;;9.68;5.07;;;;;;;;;;4955143;28;20048;-76
2021/09/23 08:57:08;;;;;;;13.02;6.63;;;;;;;;;;4980001;28;20121;-75
2021/09/23 08:59:34;;;;;;;7.07;5.00;;;;;;;;;;4978450;28;20118;-75
2021/09/23 09:02:00;;;;;;;11.38;5.22;;;;;;;;;;4968896;28;20547;-79
2021/09/23 09:04:33;;;;;;;9.57;4.57;;;;;;;;;;4969452;28;20138;-76
2021/09/23 09:07:00;;;;;;;7.45;4.50;;;;;;;;;;4968966;28;20085;-76
2021/09/23 09:09:26;;;;;;;5.90;4.57;;;;;;;;;;4983689;28;20049;-75
2021/09/23 09:11:53;;;;;;;8.77;4.75;;;;;;;;;;4988648;28;20469;-76
2021/09/23 09:14:30;;;;;;;7.53;4.43;;;;;;;;;;4981623;28;20030;-76
2021/09/23 09:17:03;;;;;;;6.88;4.70;;;;;;;;;;4968731;28;20034;-76
2021/09/23 09:19:45;;;;;;;5.25;3.90;;;;;;;;;;4967896;28;20042;-76
2021/09/23 09:22:12;;;;;;;5.28;3.55;;;;;;;;;;4968475;28;20451;-76
2021/09/23 09:24:46;;;;;;;6.47;3.97;;;;;;;;;;4969176;28;20041;-82
2021/09/23 09:27:28;;;;;;;7.57;4.30;;;;;;;;;;4969729;28;20046;-79
2021/09/23 09:29:55;;;;;;;6.57;4.30;;;;;;;;;;4999989;28;20033;-80
2021/09/23 09:32:34;;;;;;;7.88;3.92;;;;;;;;;;4996339;28;20022;-76
2021/09/23 09:35:00;;;;;;;6.70;3.78;;;;;;;;;;4988619;28;20033;-79
2021/09/23 09:37:26;;;;;;;7.10;3.80;;;;;;;;;;4975470;28;20031;-78
2021/09/23 09:39:58;;;;;;;4.65;3.50;;;;;;;;;;4969026;28;20057;-79
2021/09/23 09:42:27;;;;;;;7.07;3.60;;;;;;;;;;4969333;28;20034;-77
2021/09/23 09:44:54;;;;;;;5.65;3.65;;;;;;;;;;4968748;28;20050;-77
2021/09/23 09:47:27;;;;;;;5.90;3.40;;;;;;;;;;4968819;28;20105;-77
2021/09/23 09:49:53;;;;;;;6.65;3.03;;;;;;;;;;4968994;28;20042;-78
2021/09/23 09:52:28;;;;;;;5.65;3.17;;;;;;;;;;4952191;28;20035;-76
2021/09/23 09:55:01;;;;;;;6.03;2.90;;;;;;;;;;4968169;28;20515;-77
2021/09/23 09:57:28;;;;;;;4.68;2.65;;;;;;;;;;4968004;28;20522;-76
2021/09/23 09:59:54;;;;;;;5.53;2.60;;;;;;;;;;4968555;28;20038;-80
2021/09/23 10:02:20;;;;;;;5.32;2.65;;;;;;;;;;4968759;28;20037;-76
2021/09/23 10:04:46;;;;;;;4.75;2.30;;;;;;;;;;4952024;28;20114;-76
2021/09/23 10:07:13;;;;;;;5.85;2.60;;;;;;;;;;4984787;28;20062;-76
2021/09/23 10:09:40;;;;;;;6.50;2.80;;;;;;;;;;4992681;28;20041;-76
2021/09/23 10:12:06;;;;;;;5.05;2.65;;;;;;;;;;4977735;28;20032;-77
2021/09/23 10:14:33;;;;;;;4.40;2.22;;;;;;;;;;4969634;28;20499;-77
2021/09/23 10:17:00;;;;;;;4.00;2.40;;;;;;;;;;4975097;28;20030;-76
2021/09/23 10:19:27;;;;;;;3.05;2.17;;;;;;;;;;4974029;28;20031;-79
2021/09/23 10:21:53;;;;;;;3.17;2.20;;;;;;;;;;4982691;28;20018;-76
2021/09/23 10:24:19;;;;;;;4.75;2.50;;;;;;;;;;4992462;28;20038;-77
2021/09/23 10:26:48;;;;;;;2.75;2.25;;;;;;;;;;4983550;28;20459;-81
2021/09/23 10:29:15;;;;;;;2.83;2.05;;;;;;;;;;4975159;28;20449;-77
2021/09/23 10:31:43;;;;;;;3.47;2.40;;;;;;;;;;4985147;28;20480;-77
2021/09/23 10:34:12;;;;;;;4.43;2.00;;;;;;;;;;4973585;28;20034;-80
2021/09/23 10:36:39;;;;;;;3.65;2.25;;;;;;;;;;4973654;28;20031;-77
2021/09/23 10:39:06;;;;;;;5.03;2.00;;;;;;;;;;4971648;28;20027;-78
2021/09/23 10:41:34;;;;;;;3.10;2.28;;;;;;;;;;4972831;28;20034;-77
2021/09/23 10:44:00;;;;;;;6.88;2.35;;;;;;;;;;4974442;28;20048;-79
2021/09/23 10:46:26;;;;;;;3.30;2.20;;;;;;;;;;4990980;28;20018;-78
2021/09/23 10:48:53;;;;;;;4.93;1.83;;;;;;;;;;4991710;28;20429;-80
2021/09/23 10:51:19;;;;;;;6.78;2.45;;;;;;;;;;4991447;28;20041;-77
2021/09/23 10:53:50;;;;;;;6.68;2.47;;;;;;;;;;4990987;28;20062;-76
2021/09/23 10:56:16;;;;;;;3.75;2.35;;;;;;;;;;4991456;28;20027;-80
2021/09/23 10:58:43;;;;;;;3.03;1.90;;;;;;;;;;4989346;28;20641;-76
2021/09/23 11:01:19;;;;;;;3.60;1.90;;;;;;;;;;4955773;28;20035;-76
2021/09/23 11:03:44;;;;;;;3.53;2.33;;;;;;;;;;4972796;28;20029;-79
2021/09/23 11:06:11;;;;;;;3.75;2.05;;;;;;;;;;4973542;28;20026;-79
2021/09/23 11:08:40;;;;;;;4.10;2.30;;;;;;;;;;4990246;28;20113;-77
2021/09/23 11:11:08;;;;;;;4.63;2.10;;;;;;;;;;4990098;28;20041;-78
2021/09/23 11:13:35;;;;;;;4.47;1.98;;;;;;;;;;4989693;28;20084;-78
2021/09/23 11:16:03;;;;;;;6.40;2.10;;;;;;;;;;4970924;28;20027;-78
2021/09/23 11:18:30;;;;;;;2.58;1.58;;;;;;;;;;4969903;28;20487;-78
2021/09/23 11:20:57;;;;;;;2.83;1.80;;;;;;;;;;4989641;28;20030;-79
2021/09/23 11:23:23;;;;;;;2.03;1.75;;;;;;;;;;4988866;28;20773;-79
2021/09/23 11:25:50;;;;;;;5.30;1.88;;;;;;;;;;5002488;28;20112;-78
2021/09/23 11:28:17;;;;;;;5.00;2.00;;;;;;;;;;4996836;28;20037;-77
2021/09/23 11:30:43;;;;;;;4.72;2.30;;;;;;;;;;4971763;28;20033;-77
2021/09/23 11:33:10;;;;;;;3.28;1.92;;;;;;;;;;4972959;28;20041;-79
2021/09/23 11:35:38;;;;;;;3.25;2.38;;;;;;;;;;4990501;28;20018;-77
2021/09/23 11:38:05;;;;;;;6.07;2.45;;;;;;;;;;4989923;28;20026;-77
2021/09/23 11:40:32;;;;;;;3.50;2.30;;;;;;;;;;4972147;28;20109;-79
2021/09/23 11:43:01;;;;;;;5.97;2.38;;;14.30;99.90;;;;;;4990349;28;20031;-77
2021/09/23 11:45:31;;;;;;;3.25;2.17;;;25.10;74.10;;;;;;4989830;28;20475;-80
2021/09/23 11:48:03;;;;;;;4.32;2.58;;;25.40;74.20;;;;;;4978305;28;20023;-77
2021/09/23 11:50:36;;;;;;;6.25;2.80;;;26.30;72.60;;;;;;4990147;28;20026;-81
2021/09/23 11:53:20;;;;;;;5.43;2.38;;;26.40;70.50;;;;;;4996626;28;20030;-76
2021/09/23 11:56:08;;;;;;;5.35;2.10;;;26.20;70.40;;;;;;5003616;28;20035;-77
2021/09/23 11:58:38;;;;;;;3.75;2.70;;;25.80;72.00;;;;;;4974372;28;20031;-77
2021/09/23 12:01:04;;;;;;;4.38;2.60;;;25.70;73.30;;;;;;4974766;28;20062;-78
2021/09/23 12:03:36;;;;;;;3.40;2.30;;;25.70;73.20;;;;;;4972758;28;20073;-77
2021/09/23 12:06:02;;;;;;;4.45;2.75;;;26.40;72.30;;;;;;4992622;28;20034;-76
2021/09/23 12:08:30;;;;;;;3.15;2.40;;;26.00;72.10;;;;;;4974149;28;20035;-76
2021/09/23 12:11:02;;;;;;;3.95;2.38;;;25.60;72.60;;;;;;4973707;28;20034;-78
2021/09/23 12:13:36;;;;;;;6.43;2.42;;;25.60;72.90;;;;;;4973793;28;20050;-77
2021/09/23 12:16:19;;;;;;;5.93;2.60;;;25.70;72.40;;;;;;4973964;28;20038;-77
2021/09/23 12:18:47;;;;;;;5.07;2.10;;;25.80;71.20;;;;;;4958759;28;20027;-76
2021/09/23 12:21:24;;;;;;;4.35;2.00;;;25.50;71.70;;;;;;4993213;28;20407;-76
2021/09/23 12:23:57;;;;;;;3.13;2.20;;;25.40;72.50;;;;;;4992984;28;20129;-77
2021/09/23 12:26:40;;;;;;;3.42;1.80;;;25.80;71.40;;;;;;4975839;28;20022;-79
2021/09/23 12:29:07;;;;;;;3.33;1.90;;;26.30;69.50;;;;;;4992765;28;20511;-78
2021/09/23 12:31:39;;;;;;;6.43;1.77;;;25.50;69.90;;;;;;4987141;28;20479;-77
2021/09/23 12:34:12;;;;;;;5.50;1.87;;;25.80;69.20;;;;;;4973567;28;20045;-80
2021/09/23 12:36:45;;;;;;;3.00;1.80;;;25.20;69.60;;;;;;4973735;28;20329;-77
2021/09/23 12:39:15;;;;;;;3.83;1.95;;;25.20;68.70;;;;;;4973199;28;20031;-78
2021/09/23 12:41:43;;;;;;;6.68;2.22;;;25.20;69.00;;;;;;4973790;28;20162;-79
2021/09/23 12:44:09;;;;;;;6.15;2.22;;;25.10;69.70;;;;;;4973562;28;20033;-77
2021/09/23 12:46:34;;;;;;;3.58;1.80;;;25.10;70.60;;;;;;4979374;28;20093;-77
2021/09/23 12:49:20;;;;;;;4.78;2.00;;;25.20;69.70;;;;;;4975354;28;20029;-78
2021/09/23 12:51:48;;;;;;;3.15;1.90;;;25.70;68.30;;;;;;4993060;28;20121;-78
2021/09/23 12:54:19;;;;;;;2.85;1.90;;;25.00;70.10;;;;;;4992607;28;20022;-77
2021/09/23 12:56:44;;;;;;;6.78;2.10;;;24.80;71.00;;;;;;4975508;28;20037;-77
2021/09/23 12:59:21;;;;;;;5.30;2.00;;;24.90;69.60;;;;;;4975243;28;20031;-77
2021/09/23 13:01:49;;;;;;;3.00;1.83;;;24.90;71.20;;;;;;4992718;28;20026;-77
2021/09/23 13:04:25;;;;;;;3.65;1.98;;;25.10;70.30;;;;;;4975181;28;20432;-77
2021/09/23 13:06:52;;;;;;;3.10;2.10;;;25.30;70.30;;;;;;4992781;28;20047;-78
2021/09/23 13:09:18;;;;;;;2.38;1.83;;;25.60;70.00;;;;;;4992421;28;20074;-76
2021/09/23 13:11:43;;;;;;;5.43;1.70;;;25.60;70.70;;;;;;4992733;28;20559;-76
2021/09/23 13:14:21;;;;;;;2.58;1.70;;;25.30;69.30;;;;;;4992561;28;20102;-77
2021/09/23 13:16:46;;;;;;;2.58;1.77;;;24.90;70.60;;;;;;4992363;28;20019;-78
2021/09/23 13:19:12;;;;;;;3.05;1.95;;;24.80;72.20;;;;;;4975244;28;20029;-79
2021/09/23 13:21:38;;;;;;;9.15;2.22;;;25.30;72.10;;;;;;4992451;28;20114;-78